createdAt,value
2019-05-06T00:02:20.702Z,6.00
2019-05-06T00:04:54.216Z,5.93
2019-05-06T00:07:25.934Z,6.33
2019-05-06T00:09:57.847Z,5.93
2019-05-06T00:12:30.308Z,5.60
2019-05-06T00:15:04.001Z,6.33
2019-05-06T00:17:35.316Z,5.93
2019-05-06T00:20:08.998Z,5.63
2019-05-06T00:22:43.501Z,6.25
2019-05-06T00:25:19.008Z,5.92
2019-05-06T00:28:09.725Z,6.05
2019-05-06T00:30:43.946Z,5.33
2019-05-06T00:33:15.561Z,5.23
2019-05-06T00:35:47.272Z,5.47
2019-05-06T00:38:19.952Z,5.85
2019-05-06T00:40:54.388Z,5.37
2019-05-06T00:43:27.381Z,5.20
2019-05-06T00:45:59.005Z,5.20
2019-05-06T00:48:30.984Z,5.80
2019-05-06T00:51:04.513Z,5.13
2019-05-06T00:53:38.452Z,5.50
2019-05-06T00:56:10.468Z,5.13
2019-05-06T00:58:43.606Z,5.27
2019-05-06T01:01:26.357Z,5.30
2019-05-06T01:03:50.949Z,4.80
2019-05-06T01:06:24.653Z,4.70
2019-05-06T01:08:56.627Z,4.87
2019-05-06T01:11:28.089Z,4.87
2019-05-06T01:14:05.150Z,4.50
2019-05-06T01:16:36.796Z,3.83
2019-05-06T01:19:08.426Z,3.83
2019-05-06T01:21:39.929Z,3.73
2019-05-06T01:24:14.589Z,3.87
2019-05-06T01:26:45.988Z,3.80
2019-05-06T01:29:19.138Z,3.52
2019-05-06T01:31:51.014Z,3.20
2019-05-06T01:34:24.473Z,3.25
2019-05-06T01:36:56.898Z,3.60
2019-05-06T01:39:59.553Z,3.53
2019-05-06T01:42:36.505Z,3.30
2019-05-06T01:45:10.071Z,3.20
2019-05-06T01:47:43.746Z,3.07
2019-05-06T01:50:15.664Z,3.23
2019-05-06T01:52:47.714Z,3.27
2019-05-06T01:55:19.174Z,3.05
2019-05-06T01:57:51.124Z,3.20
2019-05-06T02:00:24.955Z,2.83
2019-05-06T02:02:56.769Z,2.93
2019-05-06T02:05:28.317Z,3.13
2019-05-06T02:08:00.447Z,3.50
2019-05-06T02:10:31.897Z,3.20
2019-05-06T02:13:04.302Z,3.10
2019-05-06T02:15:36.538Z,3.13
2019-05-06T02:18:08.459Z,3.10
2019-05-06T02:20:44.529Z,2.60
2019-05-06T02:23:19.387Z,3.10
2019-05-06T02:25:54.003Z,3.70
2019-05-06T02:28:27.924Z,3.55
2019-05-06T02:31:18.936Z,3.30
2019-05-06T02:34:18.259Z,3.50
2019-05-06T02:37:01.781Z,3.90
2019-05-06T02:39:34.211Z,3.90
2019-05-06T02:42:08.437Z,3.73
2019-05-06T02:44:40.158Z,3.90
2019-05-06T02:47:35.120Z,3.50
2019-05-06T02:50:13.281Z,3.87
2019-05-06T02:52:44.404Z,3.62
2019-05-06T02:55:17.083Z,4.10
2019-05-06T02:57:48.838Z,3.60
2019-05-06T03:00:23.908Z,3.57
2019-05-06T03:02:55.640Z,3.60
2019-05-06T03:05:27.270Z,3.90
2019-05-06T03:07:58.897Z,3.93
2019-05-06T03:10:32.923Z,3.80
2019-05-06T03:13:05.042Z,3.60
2019-05-06T03:15:36.888Z,3.67
2019-05-06T03:18:09.193Z,3.97
2019-05-06T03:20:58.230Z,4.22
2019-05-06T03:23:34.670Z,3.70
2019-05-06T03:26:06.843Z,3.50
2019-05-06T03:28:43.734Z,3.63
2019-05-06T03:31:16.387Z,3.57
2019-05-06T03:34:05.964Z,3.23
2019-05-06T03:36:27.047Z,3.52
2019-05-06T03:38:56.380Z,4.03
2019-05-06T03:41:27.971Z,3.87
2019-05-06T03:44:03.179Z,3.50
2019-05-06T03:47:10.211Z,3.63
2019-05-06T03:49:49.603Z,3.40
2019-05-06T03:52:18.558Z,3.50
2019-05-06T03:54:53.679Z,3.80
2019-05-06T03:57:26.461Z,3.77
2019-05-06T04:00:00.213Z,3.63
2019-05-06T04:02:33.620Z,3.30
2019-05-06T04:05:06.475Z,4.03
2019-05-06T04:07:38.238Z,3.60
2019-05-06T04:10:13.349Z,3.60
2019-05-06T04:12:45.964Z,3.50
2019-05-06T04:15:18.083Z,4.10
2019-05-06T04:17:54.280Z,3.60
2019-05-06T04:20:35.210Z,3.87
2019-05-06T04:23:28.737Z,3.20
2019-05-06T04:26:23.970Z,3.70
2019-05-06T04:28:55.083Z,3.43
2019-05-06T04:31:27.509Z,3.80
2019-05-06T04:34:09.963Z,3.23
2019-05-06T04:36:35.100Z,4.07
2019-05-06T04:39:07.587Z,3.70
2019-05-06T04:41:39.448Z,3.23
2019-05-06T04:44:13.934Z,3.20
2019-05-06T04:46:44.670Z,3.30
2019-05-06T04:49:17.958Z,3.23
2019-05-06T04:51:49.495Z,3.20
2019-05-06T04:54:26.185Z,3.17
2019-05-06T04:56:55.246Z,3.20
2019-05-06T04:59:26.885Z,3.30
2019-05-06T05:01:58.572Z,2.90
2019-05-06T05:04:32.430Z,2.83
2019-05-06T05:07:03.873Z,2.90
2019-05-06T05:09:35.601Z,3.10
2019-05-06T05:12:13.473Z,3.10
2019-05-06T05:15:04.160Z,3.20
2019-05-06T05:17:48.560Z,3.07
2019-05-06T05:20:35.910Z,2.87
2019-05-06T05:22:53.413Z,3.27
2019-05-06T05:25:25.677Z,3.00
2019-05-06T05:27:57.493Z,3.20
2019-05-06T05:30:32.822Z,3.20
2019-05-06T05:33:04.787Z,3.20
2019-05-06T05:35:37.860Z,3.57
2019-05-06T05:38:09.527Z,3.07
2019-05-06T05:40:43.002Z,3.10
2019-05-06T05:43:22.810Z,3.00
2019-05-06T05:45:54.863Z,3.53
2019-05-06T05:48:42.752Z,2.93
2019-05-06T05:51:14.498Z,2.87
2019-05-06T05:53:46.178Z,2.90
2019-05-06T05:56:18.594Z,2.80
2019-05-06T05:58:53.517Z,3.43
2019-05-06T06:01:26.394Z,3.33
2019-05-06T06:03:58.775Z,3.30
2019-05-06T06:06:33.013Z,2.67
2019-05-06T06:09:06.435Z,3.00
2019-05-06T06:11:59.958Z,2.93
2019-05-06T06:14:53.387Z,3.30
2019-05-06T06:17:48.841Z,2.75
2019-05-06T06:20:38.877Z,2.70
2019-05-06T06:23:25.663Z,2.80
2019-05-06T06:25:57.226Z,3.27
2019-05-06T06:28:29.231Z,2.97
2019-05-06T06:31:23.203Z,3.10
2019-05-06T06:34:03.660Z,2.70
2019-05-06T06:36:48.098Z,2.90
2019-05-06T06:39:23.077Z,2.67
2019-05-06T06:41:54.901Z,2.50
2019-05-06T06:44:29.811Z,3.23
2019-05-06T06:47:02.093Z,3.13
2019-05-06T06:49:33.858Z,2.67
2019-05-06T06:52:11.288Z,3.03
2019-05-06T06:54:43.603Z,3.00
2019-05-06T06:57:32.290Z,2.70
2019-05-06T07:00:23.598Z,3.00
2019-05-06T07:02:59.935Z,3.03
2019-05-06T07:05:42.438Z,3.30
2019-05-06T07:08:14.873Z,3.10
2019-05-06T07:10:46.451Z,2.80
2019-05-06T07:13:19.202Z,3.10
2019-05-06T07:15:51.987Z,2.80
2019-05-06T07:18:23.751Z,3.17
2019-05-06T07:21:14.121Z,2.40
2019-05-06T07:23:45.802Z,2.40
2019-05-06T07:26:19.045Z,2.20
2019-05-06T07:28:52.685Z,2.10
2019-05-06T07:31:26.732Z,2.47
2019-05-06T07:33:58.284Z,2.40
2019-05-06T07:36:32.244Z,2.17
2019-05-06T07:39:06.413Z,2.20
2019-05-06T07:41:45.921Z,2.47
2019-05-06T07:44:45.295Z,2.50
2019-05-06T07:47:33.122Z,1.57
2019-05-06T07:50:05.955Z,2.17
2019-05-06T07:52:37.967Z,2.20
2019-05-06T07:55:12.029Z,2.30
2019-05-06T19:06:25.029Z,24.70
2019-05-06T19:09:19.034Z,24.13
2019-05-06T19:11:54.301Z,25.50
2019-05-06T19:14:26.906Z,27.53
2019-05-06T19:17:02.580Z,26.80
2019-05-06T19:19:34.977Z,29.53
2019-05-06T19:22:07.009Z,28.20
2019-05-06T19:24:42.313Z,28.03
2019-05-06T19:27:13.677Z,28.33
2019-05-06T19:29:45.488Z,28.27
2019-05-06T19:32:17.356Z,25.23
2019-05-06T19:34:49.128Z,25.30
2019-05-06T19:37:23.104Z,25.15
2019-05-06T19:39:55.024Z,25.47
2019-05-06T19:42:26.751Z,22.63
2019-05-06T19:45:02.337Z,26.30
2019-05-06T19:47:34.202Z,28.43
2019-05-06T19:50:06.630Z,32.23
2019-05-06T19:52:39.275Z,30.13
2019-05-06T19:55:12.320Z,21.27
2019-05-06T19:57:45.020Z,6.63
2019-05-06T20:00:18.187Z,8.53
2019-05-06T20:02:52.158Z,11.97
2019-05-06T20:05:46.157Z,13.73
2019-05-06T20:08:25.664Z,14.60
2019-05-06T20:11:33.077Z,13.10
2019-05-06T20:14:04.863Z,13.37
2019-05-06T20:16:37.001Z,11.77
2019-05-06T20:19:08.660Z,13.50
2019-05-06T20:21:42.418Z,13.87
2019-05-06T20:24:14.387Z,13.22
2019-05-06T20:26:46.289Z,12.60
2019-05-06T20:29:17.913Z,13.03
2019-05-06T20:31:50.014Z,10.83
2019-05-06T20:34:22.603Z,7.53
2019-05-06T20:36:54.460Z,9.17
2019-05-06T20:39:26.130Z,9.80
2019-05-06T20:41:58.296Z,9.70
2019-05-06T20:44:32.423Z,8.80
2019-05-06T20:47:04.109Z,8.53
2019-05-06T20:49:38.718Z,8.17
2019-05-06T20:52:12.277Z,7.87
2019-05-06T20:54:43.889Z,8.13
2019-05-06T20:57:15.519Z,8.90
2019-05-06T20:59:47.345Z,9.17
2019-05-06T21:02:18.977Z,9.35
2019-05-06T21:04:50.791Z,9.33
2019-05-06T21:07:23.122Z,8.58
2019-05-06T21:09:54.972Z,8.77
2019-05-06T21:12:27.027Z,8.13
2019-05-06T21:14:58.580Z,7.90
2019-05-06T21:17:32.287Z,7.60
2019-05-06T21:20:05.041Z,7.07
2019-05-06T21:22:36.729Z,7.77
2019-05-06T21:25:08.947Z,7.93
2019-05-06T21:27:42.397Z,6.87
2019-05-06T21:30:15.912Z,8.07
2019-05-06T21:32:47.637Z,7.07
2019-05-06T21:35:19.479Z,7.72
2019-05-06T21:37:52.960Z,6.97
2019-05-06T21:40:24.847Z,7.40
2019-05-06T21:42:57.297Z,7.10
2019-05-06T21:45:30.355Z,6.50
2019-05-06T21:48:02.829Z,6.80
2019-05-06T21:50:34.925Z,6.83
2019-05-06T21:53:06.660Z,7.37
2019-05-06T21:55:38.634Z,7.03
2019-05-06T21:58:12.266Z,7.00
2019-05-06T22:00:52.717Z,6.73
2019-05-06T22:03:24.895Z,7.33
2019-05-06T22:05:57.519Z,7.00
2019-05-06T22:08:30.011Z,7.27
2019-05-06T22:11:02.893Z,7.40
2019-05-06T22:13:36.095Z,6.97
2019-05-06T22:16:07.596Z,7.17
2019-05-06T22:18:39.560Z,7.20
2019-05-06T22:21:22.488Z,7.60
2019-05-06T22:23:59.432Z,6.83
2019-05-06T22:26:32.443Z,7.80
2019-05-06T22:29:05.295Z,7.60
2019-05-06T22:31:36.996Z,7.63
2019-05-06T22:34:08.674Z,6.60
2019-05-06T22:36:40.388Z,6.90
2019-05-06T22:39:13.617Z,7.47
2019-05-06T22:41:46.183Z,7.53
2019-05-06T22:44:18.626Z,6.83
2019-05-06T22:46:50.286Z,6.90
2019-05-06T22:49:22.868Z,6.63
2019-05-06T22:51:55.416Z,7.73
2019-05-06T22:54:26.928Z,7.33
2019-05-06T22:56:58.705Z,7.73
2019-05-06T22:59:30.289Z,8.50
2019-05-06T23:02:19.627Z,7.93
2019-05-06T23:04:54.379Z,8.30
2019-05-06T23:07:26.438Z,8.30
2019-05-06T23:09:58.232Z,8.00
2019-05-06T23:12:32.446Z,8.90
2019-05-06T23:15:04.646Z,8.63
2019-05-06T23:17:36.321Z,8.07
2019-05-06T23:20:09.123Z,8.80
2019-05-06T23:22:42.635Z,8.50
2019-05-06T23:25:14.560Z,8.35
2019-05-06T23:27:46.472Z,8.73
2019-05-06T23:30:18.499Z,8.73
2019-05-06T23:32:50.241Z,8.40
2019-05-06T23:35:22.249Z,8.53
2019-05-06T23:38:33.768Z,8.90
2019-05-06T23:41:39.202Z,8.10
2019-05-06T23:44:47.404Z,8.30
2019-05-06T23:47:54.874Z,8.00
2019-05-06T23:51:02.371Z,7.55
2019-05-06T23:54:09.727Z,7.83
2019-05-06T23:56:43.418Z,7.70
2019-05-06T23:59:15.864Z,7.53
